createdAt,value
2017-10-06T00:02:11.543Z,8.30
2017-10-06T00:04:39.804Z,8.30
2017-10-06T00:07:08.063Z,8.30
2017-10-06T00:09:37.843Z,8.30
2017-10-06T00:12:06.103Z,8.30
2017-10-06T00:14:34.380Z,8.40
2017-10-06T00:17:02.657Z,8.30
2017-10-06T00:19:31.809Z,8.30
2017-10-06T00:22:00.060Z,8.20
2017-10-06T00:24:28.333Z,8.20
2017-10-06T00:26:56.613Z,8.20
2017-10-06T00:29:24.900Z,8.20
2017-10-06T00:31:53.180Z,8.20
2017-10-06T00:34:21.448Z,8.20
2017-10-06T00:36:49.862Z,8.30
2017-10-06T00:39:18.145Z,8.30
2017-10-06T00:41:47.168Z,8.10
2017-10-06T00:44:15.447Z,8.10
2017-10-06T00:46:43.705Z,8.20
2017-10-06T00:49:12.015Z,8.20
2017-10-06T00:51:40.275Z,8.20
2017-10-06T00:54:08.565Z,8.30
2017-10-06T00:56:36.829Z,8.40
2017-10-06T00:59:05.139Z,8.50
2017-10-06T01:01:34.168Z,8.50
2017-10-06T01:04:02.440Z,8.50
2017-10-06T01:06:30.720Z,8.50
2017-10-06T01:08:58.983Z,8.50
2017-10-06T01:11:27.263Z,8.50
2017-10-06T01:13:55.520Z,8.40
2017-10-06T01:16:23.831Z,8.40
2017-10-06T01:18:52.107Z,8.40
2017-10-06T01:21:20.390Z,8.40
2017-10-06T01:23:48.680Z,8.40
2017-10-06T01:26:17.729Z,8.40
2017-10-06T01:28:46.008Z,8.30
2017-10-06T01:31:14.282Z,8.30
2017-10-06T01:33:43.338Z,8.30
2017-10-06T01:36:13.111Z,8.20
2017-10-06T01:38:41.400Z,8.20
2017-10-06T01:41:09.660Z,8.30
2017-10-06T01:43:37.975Z,8.40
2017-10-06T01:46:06.244Z,8.40
2017-10-06T01:48:34.500Z,8.30
2017-10-06T01:51:02.776Z,8.30
2017-10-06T01:53:31.032Z,8.30
2017-10-06T01:55:59.320Z,8.40
2017-10-06T01:58:27.580Z,8.40
2017-10-06T02:00:55.857Z,8.40
2017-10-06T02:03:24.136Z,8.50
2017-10-06T02:05:52.444Z,8.40
2017-10-06T02:08:20.707Z,8.50
2017-10-06T02:10:48.970Z,8.40
2017-10-06T02:13:17.250Z,8.40
2017-10-06T02:15:45.508Z,8.40
2017-10-06T02:18:13.796Z,8.40
2017-10-06T02:20:42.837Z,8.40
2017-10-06T02:23:11.116Z,8.40
2017-10-06T02:25:40.880Z,8.40
2017-10-06T02:28:09.175Z,8.40
2017-10-06T02:30:37.435Z,8.50
2017-10-06T02:33:05.700Z,8.50
2017-10-06T02:35:33.975Z,8.40
2017-10-06T02:38:03.007Z,8.50
2017-10-06T02:40:31.272Z,8.40
2017-10-06T02:42:59.536Z,8.40
2017-10-06T02:45:27.815Z,8.40
2017-10-06T02:47:56.079Z,8.40
2017-10-06T02:50:24.393Z,8.30
2017-10-06T02:52:52.659Z,8.30
2017-10-06T02:55:20.919Z,8.30
2017-10-06T02:57:49.199Z,8.30
2017-10-06T03:00:17.468Z,8.30
2017-10-06T03:02:45.752Z,8.30
2017-10-06T03:05:14.791Z,8.40
2017-10-06T03:07:43.182Z,8.30
2017-10-06T03:10:11.488Z,8.50
2017-10-06T03:12:39.793Z,8.50
2017-10-06T03:15:08.052Z,8.60
2017-10-06T03:17:36.328Z,8.60
2017-10-06T03:20:04.612Z,8.60
2017-10-06T03:22:33.671Z,8.70
2017-10-06T03:25:02.704Z,8.70
2017-10-06T03:27:30.968Z,8.60
2017-10-06T03:29:59.263Z,8.60
2017-10-06T03:32:27.748Z,8.70
2017-10-06T03:34:56.004Z,8.60
2017-10-06T03:37:24.265Z,8.70
2017-10-06T03:39:53.321Z,8.60
2017-10-06T03:42:21.590Z,8.50
2017-10-06T03:44:49.922Z,8.50
2017-10-06T03:47:18.180Z,8.60
2017-10-06T03:49:46.487Z,8.70
2017-10-06T03:52:16.252Z,8.60
2017-10-06T03:54:44.512Z,8.60
2017-10-06T03:57:12.793Z,8.60
2017-10-06T03:59:41.120Z,8.50
2017-10-06T04:02:09.372Z,8.50
2017-10-06T04:04:37.631Z,8.50
2017-10-06T04:07:05.912Z,8.40
2017-10-06T04:09:34.183Z,8.30
2017-10-06T04:12:02.464Z,8.40
2017-10-06T04:14:30.726Z,8.30
2017-10-06T04:16:59.000Z,8.30
2017-10-06T04:19:27.259Z,8.30
2017-10-06T04:21:55.567Z,8.20
2017-10-06T04:24:23.819Z,8.20
2017-10-06T04:26:52.132Z,8.20
2017-10-06T04:29:20.388Z,8.30
2017-10-06T04:31:48.669Z,8.40
2017-10-06T04:34:16.937Z,8.40
2017-10-06T04:36:45.968Z,8.40
2017-10-06T04:39:14.244Z,8.30
2017-10-06T04:41:42.531Z,8.40
2017-10-06T04:44:10.812Z,8.50
2017-10-06T04:46:39.832Z,8.50
2017-10-06T04:49:08.336Z,8.50
2017-10-06T04:51:36.609Z,8.50
2017-10-06T04:54:05.636Z,8.60
2017-10-06T04:56:33.916Z,8.50
2017-10-06T04:59:02.180Z,8.60
2017-10-06T05:01:30.456Z,8.60
2017-10-06T05:03:58.725Z,8.60
2017-10-06T05:06:27.024Z,8.50
2017-10-06T05:08:55.303Z,8.60
2017-10-06T05:11:23.595Z,8.60
2017-10-06T05:13:51.876Z,8.60
2017-10-06T05:16:20.183Z,8.60
2017-10-06T05:18:48.460Z,8.50
2017-10-06T05:21:16.840Z,8.50
2017-10-06T05:23:45.177Z,8.60
2017-10-06T05:26:13.435Z,8.60
2017-10-06T05:28:41.696Z,8.50
2017-10-06T05:31:12.949Z,8.50
2017-10-06T05:33:42.732Z,8.40
2017-10-06T05:36:11.016Z,8.40
2017-10-06T05:38:39.273Z,8.50
2017-10-06T05:41:07.533Z,8.50
2017-10-06T05:43:35.826Z,8.40
2017-10-06T05:46:04.848Z,8.50
2017-10-06T05:48:33.128Z,8.50
2017-10-06T05:51:01.416Z,8.60
2017-10-06T05:53:29.716Z,8.60
2017-10-06T05:55:58.001Z,8.60
2017-10-06T05:58:26.254Z,8.60
2017-10-06T06:00:54.528Z,8.60
2017-10-06T06:03:22.788Z,8.70
2017-10-06T06:05:51.093Z,8.70
2017-10-06T06:08:20.132Z,8.70
2017-10-06T06:10:48.624Z,8.70
2017-10-06T06:13:16.888Z,8.80
2017-10-06T06:15:45.923Z,8.80
2017-10-06T06:18:14.205Z,8.70
2017-10-06T06:20:42.513Z,8.90
2017-10-06T06:23:11.552Z,8.80
2017-10-06T06:25:39.816Z,8.80
2017-10-06T06:28:08.092Z,8.90
2017-10-06T06:30:36.352Z,8.80
2017-10-06T06:33:05.403Z,8.90
2017-10-06T06:35:33.668Z,8.80
2017-10-06T06:38:01.933Z,8.90
2017-10-06T06:40:30.217Z,8.90
2017-10-06T06:42:58.472Z,8.90
2017-10-06T06:45:26.759Z,9.00
2017-10-06T06:47:55.016Z,9.00
2017-10-06T06:50:24.076Z,9.00
2017-10-06T06:52:52.336Z,8.90
2017-10-06T06:55:20.600Z,8.90
2017-10-06T06:57:48.875Z,8.90
2017-10-06T07:00:17.909Z,9.00
2017-10-06T07:02:46.416Z,8.90
2017-10-06T07:05:14.708Z,9.00
2017-10-06T07:07:42.973Z,9.00
2017-10-06T07:10:11.247Z,9.00
2017-10-06T07:12:39.515Z,9.10
2017-10-06T07:15:07.784Z,9.10
2017-10-06T07:17:36.048Z,9.00
2017-10-06T07:20:04.328Z,9.00
2017-10-06T07:22:33.519Z,9.00
2017-10-06T07:25:02.568Z,9.20
2017-10-06T07:27:30.824Z,9.20
2017-10-06T07:29:59.105Z,9.30
2017-10-06T07:32:27.368Z,9.30
2017-10-06T07:34:55.644Z,9.30
2017-10-06T07:37:24.667Z,9.40
2017-10-06T07:39:53.084Z,9.30
2017-10-06T07:42:21.328Z,9.30
2017-10-06T07:44:49.591Z,9.30
2017-10-06T07:47:17.875Z,9.30
2017-10-06T07:49:46.891Z,9.40
2017-10-06T07:52:15.180Z,9.30
2017-10-06T07:54:43.438Z,9.40
2017-10-06T07:57:11.696Z,9.40
2017-10-06T07:59:39.972Z,9.50
2017-10-06T08:02:09.024Z,9.50
2017-10-06T08:04:37.295Z,9.50
2017-10-06T08:07:05.566Z,9.60
2017-10-06T08:09:33.884Z,9.60
2017-10-06T08:12:02.144Z,9.60
2017-10-06T08:14:30.412Z,9.50
2017-10-06T08:16:58.693Z,9.50
2017-10-06T08:19:26.953Z,9.50
2017-10-06T08:21:55.264Z,9.50
2017-10-06T08:24:24.287Z,9.70
2017-10-06T08:26:52.600Z,9.70
2017-10-06T08:29:21.664Z,9.90
2017-10-06T08:31:49.925Z,9.80
2017-10-06T08:34:18.209Z,10.00
2017-10-06T08:36:47.247Z,10.10
2017-10-06T08:39:15.528Z,10.10
2017-10-06T08:41:43.800Z,10.20
2017-10-06T08:44:12.181Z,10.30
2017-10-06T08:46:40.560Z,10.40
2017-10-06T08:49:08.872Z,10.40
2017-10-06T08:51:37.149Z,10.20
2017-10-06T08:54:05.663Z,10.10
2017-10-06T08:56:33.948Z,10.20
2017-10-06T08:59:02.220Z,10.30
2017-10-06T09:01:30.500Z,10.30
2017-10-06T09:03:59.581Z,10.30
2017-10-06T09:06:28.652Z,10.30
2017-10-06T09:08:56.923Z,10.30
2017-10-06T09:11:25.963Z,10.20
2017-10-06T09:13:54.248Z,10.20
2017-10-06T09:16:22.515Z,10.30
2017-10-06T09:18:50.808Z,10.50
2017-10-06T09:21:19.091Z,10.60
2017-10-06T09:23:47.396Z,10.60
2017-10-06T09:26:15.676Z,10.50
2017-10-06T09:28:44.703Z,10.50
2017-10-06T09:31:12.984Z,10.50
2017-10-06T09:33:41.256Z,10.60
2017-10-06T09:36:09.544Z,10.60
2017-10-06T09:38:37.842Z,10.60
2017-10-06T09:41:06.147Z,10.60
2017-10-06T09:43:34.416Z,10.60
2017-10-06T09:46:03.444Z,10.50
2017-10-06T09:48:31.724Z,10.50
2017-10-06T09:50:59.992Z,10.40
2017-10-06T09:53:28.280Z,10.30
2017-10-06T09:55:57.308Z,10.00
2017-10-06T09:58:25.607Z,10.00
2017-10-06T10:00:53.880Z,10.10
2017-10-06T10:03:22.916Z,10.40
2017-10-06T10:05:51.228Z,10.30
2017-10-06T10:08:20.316Z,10.40
2017-10-06T10:10:49.375Z,10.40
2017-10-06T10:13:19.153Z,10.30
2017-10-06T10:15:47.483Z,10.30
2017-10-06T10:18:15.752Z,10.40
2017-10-06T10:20:44.020Z,10.40
2017-10-06T10:23:12.319Z,10.30
2017-10-06T10:25:40.581Z,10.40
2017-10-06T10:28:08.943Z,10.40
2017-10-06T10:30:38.032Z,10.50
2017-10-06T10:33:06.435Z,10.40
2017-10-06T10:35:34.741Z,10.30
2017-10-06T10:38:03.037Z,10.30
2017-10-06T10:40:31.347Z,10.40
2017-10-06T10:42:59.608Z,10.40
2017-10-06T10:45:27.935Z,10.50
2017-10-06T10:47:56.233Z,10.60
2017-10-06T10:50:24.577Z,10.70
2017-10-06T10:52:52.922Z,10.80
2017-10-06T10:55:21.295Z,10.90
2017-10-06T10:57:49.661Z,10.70
2017-10-06T11:00:18.070Z,10.80
2017-10-06T11:02:46.417Z,11.20
2017-10-06T11:05:14.786Z,11.70
2017-10-06T11:07:43.487Z,12.10
2017-10-06T11:10:11.872Z,12.50
2017-10-06T11:12:40.154Z,12.60
2017-10-06T11:15:08.436Z,12.90
2017-10-06T11:17:36.706Z,12.80
2017-10-06T11:20:04.988Z,12.70
2017-10-06T11:22:34.024Z,12.20
2017-10-06T11:25:02.328Z,12.20
2017-10-06T11:27:31.364Z,11.70
2017-10-06T11:29:59.639Z,11.60
2017-10-06T11:32:27.928Z,11.70
2017-10-06T11:34:57.000Z,12.10
2017-10-06T11:37:26.042Z,12.60
2017-10-06T11:39:54.308Z,12.50
2017-10-06T11:42:22.597Z,12.70
2017-10-06T11:44:52.403Z,12.70
2017-10-06T11:47:21.443Z,12.70
2017-10-06T11:49:49.703Z,12.70
2017-10-06T11:52:17.996Z,12.60
2017-10-06T11:54:46.268Z,12.40
2017-10-06T11:57:15.327Z,12.40
2017-10-06T11:59:43.596Z,12.40
2017-10-06T12:02:11.892Z,12.20
2017-10-06T12:04:40.169Z,12.20
2017-10-06T12:07:08.440Z,12.30
2017-10-06T12:09:36.732Z,12.10
2017-10-06T12:12:05.003Z,11.90
2017-10-06T12:14:33.284Z,11.70
2017-10-06T12:17:02.320Z,12.50
2017-10-06T12:19:30.600Z,12.50
2017-10-06T12:22:00.396Z,13.70
2017-10-06T12:24:28.680Z,13.70
2017-10-06T12:26:57.728Z,14.50
2017-10-06T12:29:25.995Z,14.40
2017-10-06T12:31:54.276Z,14.70
2017-10-06T12:34:23.312Z,14.90
2017-10-06T12:36:51.596Z,14.80
2017-10-06T12:39:19.984Z,15.00
2017-10-06T12:41:49.252Z,14.10
2017-10-06T12:44:17.516Z,14.00
2017-10-06T12:46:45.781Z,13.30
2017-10-06T12:49:14.840Z,12.50
2017-10-06T12:51:43.108Z,12.50
2017-10-06T12:54:11.395Z,12.40
2017-10-06T12:56:40.424Z,12.20
2017-10-06T12:59:08.760Z,12.20
2017-10-06T13:01:37.028Z,12.20
2017-10-06T13:04:05.300Z,12.20
2017-10-06T13:06:33.579Z,12.20
2017-10-06T13:09:01.856Z,12.20
2017-10-06T13:11:30.140Z,12.30
2017-10-06T13:13:59.183Z,13.60
2017-10-06T13:16:27.513Z,13.60
2017-10-06T13:18:55.780Z,14.40
2017-10-06T13:21:24.055Z,14.10
2017-10-06T13:23:52.340Z,13.90
2017-10-06T13:26:20.612Z,13.90
2017-10-06T13:28:48.896Z,13.80
2017-10-06T13:31:17.163Z,13.70
2017-10-06T13:33:45.604Z,13.20
2017-10-06T13:36:13.872Z,12.80
2017-10-06T13:38:42.903Z,12.70
2017-10-06T13:41:11.192Z,12.70
2017-10-06T13:43:40.972Z,12.70
2017-10-06T13:46:09.256Z,12.70
2017-10-06T13:48:37.524Z,12.60
2017-10-06T13:51:05.992Z,12.60
2017-10-06T13:53:34.248Z,12.70
2017-10-06T13:56:02.513Z,12.70
2017-10-06T13:58:31.564Z,12.50
2017-10-06T14:00:59.839Z,12.40
2017-10-06T14:03:28.113Z,12.30
2017-10-06T14:05:57.144Z,12.00
2017-10-06T14:08:25.630Z,12.00
2017-10-06T14:10:53.896Z,11.90
2017-10-06T14:13:22.160Z,11.90
2017-10-06T14:15:50.444Z,11.90
2017-10-06T14:18:19.492Z,11.90
2017-10-06T14:20:47.899Z,11.80
2017-10-06T14:23:16.172Z,11.80
2017-10-06T14:25:44.436Z,11.80
2017-10-06T14:28:12.743Z,11.80
2017-10-06T14:30:40.999Z,11.80
2017-10-06T14:33:09.276Z,11.80
2017-10-06T14:35:37.550Z,11.70
2017-10-06T14:38:05.852Z,11.70
2017-10-06T14:40:34.119Z,11.60
2017-10-06T14:43:02.393Z,11.50
2017-10-06T14:45:30.676Z,11.40
2017-10-06T14:47:58.943Z,11.40
2017-10-06T14:50:27.228Z,11.60
2017-10-06T14:52:56.256Z,12.00
2017-10-06T14:55:24.576Z,12.00
2017-10-06T14:57:53.608Z,12.30
2017-10-06T15:00:21.872Z,12.20
2017-10-06T15:02:50.164Z,12.30
2017-10-06T15:05:19.216Z,12.10
2017-10-06T15:07:47.500Z,12.10
2017-10-06T15:10:16.540Z,11.80
2017-10-06T15:12:44.844Z,11.70
2017-10-06T15:15:13.880Z,11.80
2017-10-06T15:17:42.164Z,11.80
2017-10-06T15:20:10.444Z,11.70
2017-10-06T15:22:38.708Z,11.70
2017-10-06T15:25:07.756Z,11.60
2017-10-06T15:27:36.024Z,11.50
2017-10-06T15:30:04.304Z,11.60
2017-10-06T15:32:32.568Z,11.40
2017-10-06T15:35:01.636Z,11.30
2017-10-06T15:37:29.900Z,11.20
2017-10-06T15:39:58.184Z,11.30
2017-10-06T15:42:27.216Z,11.30
2017-10-06T15:44:55.536Z,11.30
2017-10-06T15:47:23.808Z,11.40
2017-10-06T15:49:52.068Z,11.30
2017-10-06T15:52:20.351Z,11.30
2017-10-06T15:54:48.628Z,11.20
2017-10-06T15:57:16.907Z,11.10
2017-10-06T15:59:45.177Z,11.10
2017-10-06T16:02:14.229Z,11.20
2017-10-06T16:04:42.523Z,11.10
2017-10-06T16:07:15.494Z,11.10
2017-10-06T16:09:45.136Z,11.10
2017-10-06T16:12:17.385Z,11.10
2017-10-06T16:14:46.568Z,11.10
2017-10-06T16:17:14.831Z,11.20
2017-10-06T16:19:43.117Z,11.20
2017-10-06T16:22:18.132Z,11.10
2017-10-06T16:24:49.960Z,11.10
2017-10-06T16:27:21.212Z,11.00
2017-10-06T16:29:49.544Z,10.90
2017-10-06T16:32:17.812Z,10.90
2017-10-06T16:34:46.084Z,10.90
2017-10-06T16:37:14.696Z,10.80
2017-10-06T16:39:43.724Z,10.60
2017-10-06T16:42:12.016Z,10.60
2017-10-06T16:44:40.295Z,10.60
2017-10-06T16:47:09.569Z,10.50
2017-10-06T16:49:38.603Z,10.50
2017-10-06T16:52:06.864Z,10.50
2017-10-06T16:54:35.148Z,10.60
2017-10-06T16:57:03.412Z,10.60
2017-10-06T16:59:33.212Z,10.60
2017-10-06T17:02:01.484Z,10.60
2017-10-06T17:04:29.951Z,10.60
2017-10-06T17:06:58.220Z,10.60
2017-10-06T17:09:27.251Z,10.60
2017-10-06T17:11:55.536Z,10.50
2017-10-06T17:14:23.804Z,10.50
2017-10-06T17:16:52.088Z,10.40
2017-10-06T17:19:21.128Z,10.40
2017-10-06T17:21:49.619Z,10.40
2017-10-06T17:24:17.888Z,10.50
2017-10-06T17:26:46.931Z,10.50
2017-10-06T17:29:15.220Z,10.40
2017-10-06T17:31:43.501Z,10.60
2017-10-06T17:34:12.545Z,10.40
2017-10-06T17:36:40.816Z,10.40
2017-10-06T17:39:09.096Z,10.50
2017-10-06T17:41:38.140Z,10.50
2017-10-06T17:44:06.444Z,10.40
2017-10-06T17:46:35.483Z,10.50
2017-10-06T17:49:03.752Z,10.40
2017-10-06T17:51:32.036Z,10.40
2017-10-06T17:54:01.103Z,10.30
2017-10-06T17:56:29.372Z,10.30
2017-10-06T17:58:58.452Z,10.20
2017-10-06T18:01:26.764Z,10.10
2017-10-06T18:03:55.040Z,10.20
2017-10-06T18:06:23.307Z,10.20
2017-10-06T18:08:51.592Z,10.20
2017-10-06T18:11:19.865Z,10.10
2017-10-06T18:13:48.957Z,10.10
2017-10-06T18:16:17.250Z,10.10
2017-10-06T18:18:45.656Z,10.20
2017-10-06T18:21:13.928Z,10.20
2017-10-06T18:23:42.196Z,10.30
2017-10-06T18:26:11.248Z,10.30
2017-10-06T18:28:39.516Z,10.30
2017-10-06T18:31:07.827Z,10.20
2017-10-06T18:33:36.108Z,10.30
2017-10-06T18:36:04.372Z,10.10
2017-10-06T18:38:32.654Z,10.20
2017-10-06T18:41:00.923Z,10.30
2017-10-06T18:43:29.204Z,10.30
2017-10-06T18:45:58.257Z,10.20
2017-10-06T18:48:26.571Z,10.20
2017-10-06T18:50:54.855Z,10.20
2017-10-06T18:53:23.124Z,10.30
2017-10-06T18:55:51.407Z,10.20
2017-10-06T18:58:19.708Z,10.30
2017-10-06T19:00:47.992Z,10.20
2017-10-06T19:03:16.256Z,10.20
2017-10-06T19:05:44.548Z,10.20
2017-10-06T19:08:12.812Z,10.10
2017-10-06T19:10:41.081Z,10.10
2017-10-06T19:13:09.456Z,10.10
2017-10-06T19:15:37.715Z,10.20
2017-10-06T19:18:06.002Z,10.20
2017-10-06T19:20:34.272Z,10.30
2017-10-06T19:23:02.564Z,10.30
2017-10-06T19:25:30.851Z,10.40
2017-10-06T19:27:59.155Z,10.40
2017-10-06T19:30:27.428Z,10.30
2017-10-06T19:32:55.692Z,10.30
2017-10-06T19:35:23.971Z,10.20
2017-10-06T19:37:52.240Z,10.30
2017-10-06T19:40:20.544Z,10.20
2017-10-06T19:42:48.815Z,10.20
2017-10-06T19:45:17.112Z,10.30
2017-10-06T19:47:45.408Z,10.20
2017-10-06T19:50:14.482Z,10.20
2017-10-06T19:52:42.754Z,10.20
2017-10-06T19:55:11.850Z,10.20
2017-10-06T19:57:40.904Z,10.20
2017-10-06T20:00:09.156Z,10.10
2017-10-06T20:02:37.439Z,10.20
2017-10-06T20:05:06.475Z,10.10
2017-10-06T20:07:34.756Z,10.10
2017-10-06T20:10:03.028Z,10.10
2017-10-06T20:12:31.324Z,10.20
2017-10-06T20:14:59.644Z,10.20
2017-10-06T20:17:28.799Z,10.20
2017-10-06T20:19:57.068Z,10.20
2017-10-06T20:22:25.339Z,10.20
2017-10-06T20:24:53.620Z,10.20
2017-10-06T20:27:21.889Z,10.30
2017-10-06T20:29:50.956Z,10.30
2017-10-06T20:32:20.925Z,10.30
2017-10-06T20:34:49.196Z,10.20
2017-10-06T20:37:17.475Z,10.30
2017-10-06T20:39:45.752Z,10.30
2017-10-06T20:42:14.800Z,10.30
2017-10-06T20:44:43.067Z,10.30
2017-10-06T20:47:11.520Z,10.30
2017-10-06T20:49:39.793Z,10.10
2017-10-06T20:52:08.064Z,10.20
2017-10-06T20:54:36.348Z,10.20
2017-10-06T20:57:05.380Z,10.20
2017-10-06T20:59:33.672Z,10.20
2017-10-06T21:02:02.708Z,10.20
2017-10-06T21:04:30.991Z,10.10
2017-10-06T21:06:59.268Z,10.20
2017-10-06T21:09:27.736Z,10.10
2017-10-06T21:11:56.002Z,10.20
2017-10-06T21:14:25.041Z,10.00
2017-10-06T21:16:53.327Z,10.00
2017-10-06T21:19:21.696Z,10.00
2017-10-06T21:21:49.976Z,10.00
2017-10-06T21:24:19.012Z,10.00
2017-10-06T21:26:47.332Z,10.00
2017-10-06T21:29:15.608Z,10.00
2017-10-06T21:31:43.880Z,10.00
2017-10-06T21:34:12.164Z,10.00
2017-10-06T21:36:40.428Z,10.00
2017-10-06T21:39:08.712Z,10.00
2017-10-06T21:41:36.980Z,10.10
2017-10-06T21:44:06.072Z,10.10
2017-10-06T21:46:35.108Z,10.10
2017-10-06T21:49:03.383Z,10.10
2017-10-06T21:51:31.669Z,10.10
2017-10-06T21:54:00.793Z,10.00
2017-10-06T21:56:29.072Z,9.90
2017-10-06T21:58:57.336Z,10.00
2017-10-06T22:01:25.621Z,10.10
2017-10-06T22:03:54.676Z,10.00
2017-10-06T22:06:22.947Z,10.00
2017-10-06T22:08:51.225Z,9.90
2017-10-06T22:11:20.261Z,10.00
2017-10-06T22:13:48.539Z,10.00
2017-10-06T22:16:16.804Z,10.00
2017-10-06T22:18:45.076Z,10.00
2017-10-06T22:21:13.359Z,9.90
2017-10-06T22:23:42.390Z,10.10
2017-10-06T22:26:10.685Z,10.00
2017-10-06T22:28:38.955Z,10.00
2017-10-06T22:31:07.983Z,9.90
2017-10-06T22:33:36.268Z,9.90
2017-10-06T22:36:04.532Z,9.90
2017-10-06T22:38:32.812Z,9.90
2017-10-06T22:41:01.073Z,9.90
2017-10-06T22:43:29.350Z,10.00
2017-10-06T22:45:57.651Z,10.00
2017-10-06T22:48:26.067Z,9.90
2017-10-06T22:50:55.099Z,10.00
2017-10-06T22:53:23.361Z,9.90
2017-10-06T22:55:51.631Z,10.00
2017-10-06T22:58:19.932Z,10.00
2017-10-06T23:00:48.996Z,9.80
2017-10-06T23:03:17.251Z,9.80
2017-10-06T23:05:45.518Z,9.90
2017-10-06T23:08:14.569Z,9.90
2017-10-06T23:10:42.839Z,9.80
2017-10-06T23:13:11.116Z,9.80
2017-10-06T23:15:39.379Z,9.90
2017-10-06T23:18:07.654Z,9.80
2017-10-06T23:20:36.670Z,9.90
2017-10-06T23:23:04.923Z,9.80
2017-10-06T23:25:33.211Z,9.90
2017-10-06T23:28:01.463Z,9.90
2017-10-06T23:30:29.735Z,9.90
2017-10-06T23:32:58.007Z,9.90
2017-10-06T23:35:26.312Z,9.80
2017-10-06T23:37:55.359Z,9.90
2017-10-06T23:40:23.615Z,9.80
2017-10-06T23:42:51.893Z,9.90
2017-10-06T23:45:20.175Z,9.90
2017-10-06T23:47:49.194Z,9.80
2017-10-06T23:50:17.455Z,9.70
2017-10-06T23:52:45.756Z,9.80
2017-10-06T23:55:14.775Z,9.80
2017-10-06T23:57:43.039Z,9.80
